createdAt,value
2017-12-08T00:00:56.641Z,0
2017-12-08T00:01:58.530Z,0
2017-12-08T00:03:00.419Z,0
2017-12-08T00:04:14.576Z,0
2017-12-08T00:05:16.464Z,0
2017-12-08T00:06:18.350Z,0
2017-12-08T00:07:20.230Z,0
2017-12-08T00:08:22.044Z,0
2017-12-08T00:09:23.867Z,0
2017-12-08T00:10:25.755Z,0
2017-12-08T00:11:27.644Z,0
2017-12-08T00:12:29.522Z,0
2017-12-08T00:13:43.668Z,0
2017-12-08T00:14:45.552Z,0
2017-12-08T00:15:47.441Z,0
2017-12-08T00:16:49.330Z,0
2017-12-08T00:17:51.153Z,0
2017-12-08T00:18:52.965Z,0
2017-12-08T00:19:54.841Z,0
2017-12-08T00:20:56.727Z,0
2017-12-08T00:21:58.606Z,0
2017-12-08T00:23:12.763Z,0
2017-12-08T00:24:14.651Z,0
2017-12-08T00:25:16.540Z,0
2017-12-08T00:26:18.418Z,0
2017-12-08T00:27:20.243Z,0
2017-12-08T00:28:22.056Z,0
2017-12-08T00:29:23.944Z,0
2017-12-08T00:30:25.850Z,0
2017-12-08T00:31:27.726Z,0
2017-12-08T00:32:41.871Z,0
2017-12-08T00:33:43.758Z,0
2017-12-08T00:34:45.648Z,0
2017-12-08T00:35:47.526Z,0
2017-12-08T00:36:49.350Z,0
2017-12-08T00:37:51.173Z,0
2017-12-08T00:38:53.061Z,0
2017-12-08T00:39:54.948Z,0
2017-12-08T00:40:56.835Z,0
2017-12-08T00:42:10.993Z,0
2017-12-08T00:43:12.880Z,0
2017-12-08T00:44:14.768Z,0
2017-12-08T00:45:16.653Z,0
2017-12-08T00:46:18.465Z,0
2017-12-08T00:47:20.288Z,0
2017-12-08T00:48:22.177Z,0
2017-12-08T00:49:24.067Z,0
2017-12-08T00:50:25.947Z,0
2017-12-08T00:51:40.092Z,0
2017-12-08T00:52:41.976Z,0
2017-12-08T00:53:43.864Z,0
2017-12-08T00:54:45.742Z,0
2017-12-08T00:55:47.557Z,0
2017-12-08T00:56:49.378Z,0
2017-12-08T00:57:51.267Z,0
2017-12-08T00:58:53.146Z,0
2017-12-08T00:59:55.024Z,0
2017-12-08T01:01:09.228Z,0
2017-12-08T01:02:11.113Z,0
2017-12-08T01:03:13.003Z,0
2017-12-08T01:04:14.938Z,0
2017-12-08T01:05:16.691Z,0
2017-12-08T01:06:18.515Z,0
2017-12-08T01:07:20.402Z,0
2017-12-08T01:08:22.280Z,0
2017-12-08T01:09:24.171Z,0
2017-12-08T01:10:38.328Z,0
2017-12-08T01:11:40.205Z,0
2017-12-08T01:12:42.085Z,0
2017-12-08T01:13:43.972Z,0
2017-12-08T01:14:45.796Z,0
2017-12-08T01:15:47.618Z,0
2017-12-08T01:16:49.506Z,0
2017-12-08T01:17:51.394Z,0
2017-12-08T01:18:53.277Z,0
2017-12-08T01:20:07.434Z,0
2017-12-08T01:21:09.318Z,0
2017-12-08T01:22:11.198Z,0
2017-12-08T01:23:13.075Z,0
2017-12-08T01:24:14.899Z,0
2017-12-08T01:25:16.723Z,0
2017-12-08T01:26:18.613Z,0
2017-12-08T01:27:20.500Z,0
2017-12-08T01:28:22.388Z,0
2017-12-08T01:29:36.533Z,0
2017-12-08T01:30:38.418Z,0
2017-12-08T01:31:40.306Z,0
2017-12-08T01:32:42.183Z,0
2017-12-08T01:33:44.007Z,0
2017-12-08T01:34:45.847Z,0
2017-12-08T01:35:47.709Z,0
2017-12-08T01:36:49.599Z,0
2017-12-08T01:37:51.475Z,0
2017-12-08T01:39:05.680Z,0
2017-12-08T01:40:07.565Z,0
2017-12-08T01:41:09.448Z,0
2017-12-08T01:42:11.327Z,0
2017-12-08T01:43:13.152Z,0
2017-12-08T01:44:14.974Z,0
2017-12-08T01:45:16.857Z,0
2017-12-08T01:46:18.728Z,0
2017-12-08T01:47:20.606Z,0
2017-12-08T01:48:34.802Z,0
2017-12-08T01:49:36.687Z,0
2017-12-08T01:50:38.576Z,0
2017-12-08T01:51:40.451Z,0
2017-12-08T01:52:42.275Z,0
2017-12-08T01:53:44.099Z,0
2017-12-08T01:54:45.977Z,0
2017-12-08T01:55:47.856Z,0
2017-12-08T01:56:49.739Z,0
2017-12-08T01:58:03.888Z,0
2017-12-08T01:59:05.762Z,0
2017-12-08T02:00:07.640Z,0
2017-12-08T02:01:09.528Z,0
2017-12-08T02:02:11.338Z,0
2017-12-08T02:03:13.160Z,0
2017-12-08T02:04:15.037Z,0
2017-12-08T02:05:16.927Z,0
2017-12-08T02:06:18.802Z,0
2017-12-08T02:07:32.949Z,0
2017-12-08T02:08:34.834Z,0
2017-12-08T02:09:36.711Z,0
2017-12-08T02:10:38.603Z,0
2017-12-08T02:11:40.410Z,0
2017-12-08T02:12:42.232Z,0
2017-12-08T02:13:44.117Z,0
2017-12-08T02:14:46.006Z,0
2017-12-08T02:15:47.882Z,0
2017-12-08T02:17:02.039Z,0
2017-12-08T02:18:03.921Z,0
2017-12-08T02:19:05.810Z,0
2017-12-08T02:20:07.687Z,0
2017-12-08T02:21:09.498Z,0
2017-12-08T02:22:11.321Z,0
2017-12-08T02:23:13.207Z,0
2017-12-08T02:24:15.094Z,0
2017-12-08T02:25:16.984Z,0
2017-12-08T02:26:31.139Z,0
2017-12-08T02:27:33.027Z,0
2017-12-08T02:28:34.905Z,0
2017-12-08T02:29:36.786Z,0
2017-12-08T02:30:38.593Z,0
2017-12-08T02:31:40.414Z,0
2017-12-08T02:32:42.293Z,0
2017-12-08T02:33:44.171Z,0
2017-12-08T02:34:46.049Z,0
2017-12-08T02:36:00.194Z,0
2017-12-08T02:37:02.079Z,0
2017-12-08T02:38:03.967Z,0
2017-12-08T02:39:05.843Z,0
2017-12-08T02:40:07.666Z,0
2017-12-08T02:41:09.489Z,0
2017-12-08T02:42:11.364Z,0
2017-12-08T02:43:13.243Z,0
2017-12-08T02:44:15.127Z,0
2017-12-08T02:45:29.282Z,0
2017-12-08T02:46:31.167Z,0
2017-12-08T02:47:33.052Z,0
2017-12-08T02:48:34.930Z,0
2017-12-08T02:49:36.752Z,0
2017-12-08T02:50:38.575Z,0
2017-12-08T02:51:40.463Z,0
2017-12-08T02:52:42.350Z,0
2017-12-08T02:53:44.274Z,0
2017-12-08T02:54:58.372Z,0
2017-12-08T02:56:00.254Z,0
2017-12-08T02:57:02.134Z,0
2017-12-08T02:58:04.018Z,0
2017-12-08T02:59:05.824Z,0
2017-12-08T03:00:07.645Z,0
2017-12-08T03:01:09.532Z,0
2017-12-08T03:02:11.409Z,0
2017-12-08T03:03:13.283Z,0
2017-12-08T03:04:27.429Z,0
2017-12-08T03:05:29.313Z,0
2017-12-08T03:06:31.192Z,0
2017-12-08T03:07:33.067Z,0
2017-12-08T03:08:34.889Z,0
2017-12-08T03:09:36.709Z,0
2017-12-08T03:10:38.596Z,0
2017-12-08T03:11:40.502Z,0
2017-12-08T03:12:42.294Z,0
2017-12-08T03:13:56.451Z,0
2017-12-08T03:14:58.339Z,0
2017-12-08T03:16:00.215Z,0
2017-12-08T03:17:02.093Z,0
2017-12-08T03:18:03.904Z,0
2017-12-08T03:19:05.724Z,0
2017-12-08T03:20:07.609Z,0
2017-12-08T03:21:09.497Z,0
2017-12-08T03:22:11.382Z,0
2017-12-08T03:23:25.536Z,0
2017-12-08T03:24:27.418Z,0
2017-12-08T03:25:29.304Z,0
2017-12-08T03:26:31.180Z,0
2017-12-08T03:27:33.003Z,0
2017-12-08T03:28:34.814Z,0
2017-12-08T03:29:36.701Z,0
2017-12-08T03:30:38.596Z,0
2017-12-08T03:31:40.478Z,0
2017-12-08T03:32:54.633Z,0
2017-12-08T03:33:56.515Z,0
2017-12-08T03:34:58.402Z,0
2017-12-08T03:36:00.279Z,0
2017-12-08T03:37:02.102Z,0
2017-12-08T03:38:03.913Z,0
2017-12-08T03:39:05.799Z,0
2017-12-08T03:40:07.691Z,0
2017-12-08T03:41:09.562Z,0
2017-12-08T03:42:23.768Z,0
2017-12-08T03:43:25.643Z,0
2017-12-08T03:44:27.530Z,0
2017-12-08T03:45:29.407Z,0
2017-12-08T03:46:31.229Z,0
2017-12-08T03:47:33.051Z,0
2017-12-08T03:48:34.928Z,0
2017-12-08T03:49:36.815Z,0
2017-12-08T03:50:38.691Z,0
2017-12-08T03:51:52.884Z,0
2017-12-08T03:52:54.771Z,0
2017-12-08T03:53:56.657Z,0
2017-12-08T03:54:58.544Z,0
2017-12-08T03:56:00.355Z,0
2017-12-08T03:57:02.163Z,0
2017-12-08T03:58:04.049Z,0
2017-12-08T03:59:05.938Z,0
2017-12-08T04:00:07.814Z,0
2017-12-08T04:01:21.971Z,0
2017-12-08T04:02:23.857Z,0
2017-12-08T04:03:25.744Z,0
2017-12-08T04:04:27.620Z,0
2017-12-08T04:05:29.445Z,0
2017-12-08T04:06:31.255Z,0
2017-12-08T04:07:33.138Z,0
2017-12-08T04:08:35.025Z,0
2017-12-08T04:09:36.898Z,0
2017-12-08T04:10:51.053Z,0
2017-12-08T04:11:52.937Z,0
2017-12-08T04:12:54.823Z,0
2017-12-08T04:13:56.702Z,0
2017-12-08T04:14:58.515Z,0
2017-12-08T04:16:00.324Z,0
2017-12-08T04:17:02.211Z,0
2017-12-08T04:18:04.087Z,0
2017-12-08T04:19:05.973Z,0
2017-12-08T04:20:20.118Z,0
2017-12-08T04:21:22.001Z,0
2017-12-08T04:22:23.887Z,0
2017-12-08T04:23:25.764Z,0
2017-12-08T04:24:27.586Z,0
2017-12-08T04:25:29.405Z,0
2017-12-08T04:26:31.291Z,0
2017-12-08T04:27:33.176Z,0
2017-12-08T04:28:35.051Z,0
2017-12-08T04:29:49.208Z,0
2017-12-08T04:30:51.086Z,0
2017-12-08T04:31:52.973Z,0
2017-12-08T04:32:54.849Z,0
2017-12-08T04:33:56.691Z,0
2017-12-08T04:34:58.475Z,0
2017-12-08T04:36:00.363Z,0
2017-12-08T04:37:02.237Z,0
2017-12-08T04:38:04.123Z,0
2017-12-08T04:39:18.269Z,0
2017-12-08T04:40:20.154Z,0
2017-12-08T04:41:22.040Z,0
2017-12-08T04:42:23.917Z,0
2017-12-08T04:43:25.739Z,0
2017-12-08T04:44:27.552Z,0
2017-12-08T04:45:29.423Z,0
2017-12-08T04:46:31.301Z,0
2017-12-08T04:47:33.177Z,0
2017-12-08T04:48:47.383Z,0
2017-12-08T04:49:49.266Z,0
2017-12-08T04:50:51.143Z,0
2017-12-08T04:51:53.032Z,0
2017-12-08T04:52:54.858Z,0
2017-12-08T04:53:56.670Z,0
2017-12-08T04:54:58.557Z,0
2017-12-08T04:56:00.444Z,0
2017-12-08T04:57:02.329Z,0
2017-12-08T04:58:16.487Z,0
2017-12-08T04:59:18.373Z,0
2017-12-08T05:00:20.254Z,0
2017-12-08T05:01:22.203Z,0
2017-12-08T05:02:24.209Z,0
2017-12-08T05:03:26.123Z,0
2017-12-08T05:04:28.050Z,0
2017-12-08T05:05:29.872Z,0
2017-12-08T05:06:31.693Z,0
2017-12-08T05:07:45.896Z,0
2017-12-08T05:08:47.780Z,0
2017-12-08T05:09:49.668Z,0
2017-12-08T05:10:51.555Z,0
2017-12-08T05:11:53.367Z,0
2017-12-08T05:12:55.179Z,0
2017-12-08T05:13:57.067Z,0
2017-12-08T05:14:58.954Z,0
2017-12-08T05:16:00.832Z,0
2017-12-08T05:17:14.973Z,0
2017-12-08T05:18:16.848Z,0
2017-12-08T05:19:18.726Z,0
2017-12-08T05:20:20.603Z,0
2017-12-08T05:21:22.414Z,0
2017-12-08T05:22:24.236Z,0
2017-12-08T05:23:26.113Z,0
2017-12-08T05:24:27.999Z,0
2017-12-08T05:25:29.886Z,0
2017-12-08T05:26:44.087Z,0
2017-12-08T05:27:45.958Z,0
2017-12-08T05:28:47.838Z,0
2017-12-08T05:29:49.714Z,0
2017-12-08T05:30:51.536Z,0
2017-12-08T05:31:53.358Z,0
2017-12-08T05:32:55.266Z,0
2017-12-08T05:33:57.142Z,0
2017-12-08T05:34:59.037Z,0
2017-12-08T05:36:13.209Z,0
2017-12-08T05:37:15.097Z,0
2017-12-08T05:38:16.972Z,0
2017-12-08T05:39:18.847Z,0
2017-12-08T05:40:20.672Z,0
2017-12-08T05:41:22.481Z,0
2017-12-08T05:42:24.367Z,0
2017-12-08T05:43:26.244Z,0
2017-12-08T05:44:28.130Z,0
2017-12-08T05:45:42.276Z,0
2017-12-08T05:46:44.162Z,0
2017-12-08T05:47:46.050Z,0
2017-12-08T05:48:47.928Z,0
2017-12-08T05:49:49.761Z,0
2017-12-08T05:50:51.568Z,0
2017-12-08T05:51:53.453Z,0
2017-12-08T05:52:55.342Z,0
2017-12-08T05:53:57.228Z,0
2017-12-08T05:55:11.374Z,0
2017-12-08T05:56:13.251Z,0
2017-12-08T05:57:15.129Z,0
2017-12-08T05:58:17.024Z,0
2017-12-08T05:59:18.830Z,0
2017-12-08T06:00:20.652Z,0
2017-12-08T06:01:22.537Z,0
2017-12-08T06:02:24.412Z,0
2017-12-08T06:03:26.297Z,0
2017-12-08T06:04:40.454Z,0
2017-12-08T06:05:42.340Z,0
2017-12-08T06:06:44.228Z,0
2017-12-08T06:07:46.120Z,0
2017-12-08T06:08:47.934Z,0
2017-12-08T06:09:49.744Z,0
2017-12-08T06:10:51.630Z,0
2017-12-08T06:11:53.517Z,0
2017-12-08T06:12:55.393Z,0
2017-12-08T06:14:09.599Z,0
2017-12-08T06:15:11.474Z,0
2017-12-08T06:16:13.360Z,0
2017-12-08T06:17:15.239Z,0
2017-12-08T06:18:17.063Z,0
2017-12-08T06:19:18.875Z,0
2017-12-08T06:20:20.760Z,0
2017-12-08T06:21:22.645Z,4
2017-12-08T06:22:24.535Z,0
2017-12-08T06:23:38.740Z,4
2017-12-08T06:24:40.625Z,4
2017-12-08T06:25:42.515Z,4
2017-12-08T06:26:44.392Z,8
2017-12-08T06:27:46.232Z,4
2017-12-08T06:28:48.032Z,8
2017-12-08T06:29:49.917Z,8
2017-12-08T06:30:51.813Z,12
2017-12-08T06:31:53.699Z,12
2017-12-08T06:33:07.860Z,16
2017-12-08T06:34:09.765Z,20
2017-12-08T06:35:11.642Z,24
2017-12-08T06:36:13.531Z,28
2017-12-08T06:37:15.345Z,28
2017-12-08T06:38:17.157Z,36
2017-12-08T06:39:19.046Z,36
2017-12-08T06:40:20.936Z,40
2017-12-08T06:41:22.815Z,48
2017-12-08T06:42:36.965Z,60
2017-12-08T06:43:38.852Z,64
2017-12-08T06:44:40.741Z,72
2017-12-08T06:45:42.625Z,76
2017-12-08T06:46:44.456Z,80
2017-12-08T06:47:46.262Z,84
2017-12-08T06:48:48.152Z,88
2017-12-08T06:49:50.042Z,88
2017-12-08T06:50:51.924Z,84
2017-12-08T06:52:06.070Z,96
2017-12-08T06:53:07.957Z,80
2017-12-08T06:54:09.836Z,72
2017-12-08T06:55:11.713Z,76
2017-12-08T06:56:13.543Z,76
2017-12-08T06:57:15.352Z,76
2017-12-08T06:58:17.239Z,96
2017-12-08T06:59:19.129Z,104
2017-12-08T07:00:21.015Z,100
2017-12-08T07:01:35.173Z,104
2017-12-08T07:02:37.060Z,116
2017-12-08T07:03:38.950Z,132
2017-12-08T07:04:40.843Z,108
2017-12-08T07:05:42.659Z,112
2017-12-08T07:06:44.472Z,132
2017-12-08T07:07:46.363Z,148
2017-12-08T07:08:48.253Z,204
2017-12-08T07:09:50.142Z,216
2017-12-08T07:11:04.375Z,212
2017-12-08T07:12:06.246Z,232
2017-12-08T07:13:08.138Z,236
2017-12-08T07:14:10.020Z,208
2017-12-08T07:15:11.846Z,208
2017-12-08T07:16:13.818Z,256
2017-12-08T07:17:15.666Z,280
2017-12-08T07:18:17.554Z,284
2017-12-08T07:19:19.445Z,348
2017-12-08T07:20:33.658Z,412
2017-12-08T07:21:35.548Z,436
2017-12-08T07:22:37.438Z,408
2017-12-08T07:23:39.329Z,412
2017-12-08T07:24:41.180Z,432
2017-12-08T07:25:42.967Z,444
2017-12-08T07:26:44.860Z,460
2017-12-08T07:27:46.742Z,504
2017-12-08T07:28:48.634Z,592
2017-12-08T07:30:02.796Z,668
2017-12-08T07:31:04.671Z,764
2017-12-08T07:32:06.563Z,840
2017-12-08T07:33:08.444Z,900
2017-12-08T07:34:10.272Z,1024
2017-12-08T07:35:12.091Z,1072
2017-12-08T07:36:13.971Z,1088
2017-12-08T07:37:15.854Z,1128
2017-12-08T07:38:17.733Z,1184
2017-12-08T07:39:31.895Z,1296
2017-12-08T07:40:33.774Z,1380
2017-12-08T07:41:35.664Z,1460
2017-12-08T07:42:37.549Z,1392
2017-12-08T07:43:39.428Z,1500
2017-12-08T07:44:41.251Z,1656
2017-12-08T07:45:43.143Z,1744
2017-12-08T07:46:45.037Z,2008
2017-12-08T07:47:46.917Z,2120
2017-12-08T07:49:01.078Z,2184
2017-12-08T07:50:02.958Z,2232
2017-12-08T07:51:04.844Z,2396
2017-12-08T07:52:06.729Z,2568
2017-12-08T07:53:08.558Z,2688
2017-12-08T07:54:10.374Z,2648
2017-12-08T07:55:12.267Z,2516
2017-12-08T07:56:14.161Z,2404
2017-12-08T07:57:16.043Z,2308
2017-12-08T07:58:30.195Z,2168
2017-12-08T07:59:32.070Z,2076
2017-12-08T08:00:33.958Z,2100
2017-12-08T08:01:35.836Z,2248
2017-12-08T08:02:37.664Z,2284
2017-12-08T08:03:39.493Z,2328
2017-12-08T08:04:41.368Z,2308
2017-12-08T08:05:43.255Z,2264
2017-12-08T08:06:45.128Z,2304
2017-12-08T08:07:59.291Z,2360
2017-12-08T08:09:01.181Z,2432
2017-12-08T08:10:03.072Z,2424
2017-12-08T08:11:04.962Z,2332
2017-12-08T08:12:06.779Z,2184
2017-12-08T08:13:08.595Z,2052
2017-12-08T08:14:10.486Z,1968
2017-12-08T08:15:12.377Z,1872
2017-12-08T08:16:14.266Z,1780
2017-12-08T08:17:28.428Z,1772
2017-12-08T08:18:30.316Z,1796
2017-12-08T08:19:32.208Z,1764
2017-12-08T08:20:34.088Z,1772
2017-12-08T08:21:35.917Z,1880
2017-12-08T08:22:37.732Z,1992
2017-12-08T08:23:39.625Z,1868
2017-12-08T08:24:41.516Z,1856
2017-12-08T08:25:43.411Z,1972
2017-12-08T08:26:57.554Z,2068
2017-12-08T08:27:59.426Z,2140
2017-12-08T08:29:01.316Z,2208
2017-12-08T08:30:03.210Z,2248
2017-12-08T08:31:05.028Z,2292
2017-12-08T08:32:06.847Z,2320
2017-12-08T08:33:08.722Z,2328
2017-12-08T08:34:10.612Z,2364
2017-12-08T08:35:12.493Z,2376
2017-12-08T08:36:26.656Z,2372
2017-12-08T08:37:28.543Z,2396
2017-12-08T08:38:30.419Z,2444
2017-12-08T08:39:32.299Z,2528
2017-12-08T08:40:34.118Z,2588
2017-12-08T08:41:35.936Z,2620
2017-12-08T08:42:37.827Z,2636
2017-12-08T08:43:39.708Z,2660
2017-12-08T08:44:41.584Z,2676
2017-12-08T08:45:55.796Z,2636
2017-12-08T08:46:57.672Z,2592
2017-12-08T08:47:59.560Z,2604
2017-12-08T08:49:01.451Z,2720
2017-12-08T08:50:03.270Z,2840
2017-12-08T08:51:05.088Z,2896
2017-12-08T08:52:06.965Z,2952
2017-12-08T08:53:08.856Z,3004
2017-12-08T08:54:10.746Z,3020
2017-12-08T08:55:24.910Z,3080
2017-12-08T08:56:26.795Z,3032
2017-12-08T08:57:28.685Z,2932
2017-12-08T08:58:30.575Z,2820
2017-12-08T08:59:32.394Z,2536
2017-12-08T09:00:34.222Z,2352
2017-12-08T09:01:36.109Z,2228
2017-12-08T09:02:37.986Z,2056
2017-12-08T09:03:39.873Z,2112
2017-12-08T09:04:54.073Z,2172
2017-12-08T09:05:55.952Z,2056
2017-12-08T09:06:57.831Z,1896
2017-12-08T09:07:59.710Z,1952
2017-12-08T09:09:01.544Z,2216
2017-12-08T09:10:03.357Z,2452
2017-12-08T09:11:05.246Z,2844
2017-12-08T09:12:07.127Z,3532
2017-12-08T09:13:09.003Z,3832
2017-12-08T09:14:23.155Z,4116
2017-12-08T09:15:25.045Z,4052
2017-12-08T09:16:26.939Z,3856
2017-12-08T09:17:28.822Z,3948
2017-12-08T09:18:30.643Z,4200
2017-12-08T09:19:32.490Z,4136
2017-12-08T09:20:34.344Z,4004
2017-12-08T09:21:36.224Z,3912
2017-12-08T09:22:38.118Z,3956
2017-12-08T09:23:52.273Z,4184
2017-12-08T09:24:54.164Z,4412
2017-12-08T09:25:56.057Z,4632
2017-12-08T09:26:57.953Z,4912
2017-12-08T09:27:59.759Z,5160
2017-12-08T09:29:01.577Z,5428
2017-12-08T09:30:03.457Z,5644
2017-12-08T09:31:05.335Z,5236
2017-12-08T09:32:07.218Z,4708
2017-12-08T09:33:21.371Z,4632
2017-12-08T09:34:23.247Z,4864
2017-12-08T09:35:25.132Z,5016
2017-12-08T09:36:27.011Z,4932
2017-12-08T09:37:28.841Z,4624
2017-12-08T09:38:30.658Z,4732
2017-12-08T09:39:32.571Z,4996
2017-12-08T09:40:34.480Z,5084
2017-12-08T09:41:36.364Z,5108
2017-12-08T09:42:50.515Z,4804
2017-12-08T09:43:52.394Z,4908
2017-12-08T09:44:54.276Z,5164
2017-12-08T09:45:56.171Z,5516
2017-12-08T09:46:57.992Z,5640
2017-12-08T09:47:59.821Z,5476
2017-12-08T09:49:01.716Z,5104
2017-12-08T09:50:03.596Z,4676
2017-12-08T09:51:05.489Z,4088
2017-12-08T09:52:19.652Z,3480
2017-12-08T09:53:21.548Z,3516
2017-12-08T09:54:23.427Z,3548
2017-12-08T09:55:25.321Z,3292
2017-12-08T09:56:27.143Z,2584
2017-12-08T09:57:28.963Z,1956
2017-12-08T09:58:30.854Z,1556
2017-12-08T09:59:32.748Z,1288
2017-12-08T10:00:34.642Z,1432
2017-12-08T10:01:48.806Z,1456
2017-12-08T10:02:50.703Z,1336
2017-12-08T10:03:52.575Z,1716
2017-12-08T10:04:54.471Z,2384
2017-12-08T10:05:56.291Z,2972
2017-12-08T10:06:58.111Z,2788
2017-12-08T10:07:59.992Z,2380
2017-12-08T10:09:01.882Z,1960
2017-12-08T10:10:03.768Z,2060
2017-12-08T10:11:17.935Z,3324
2017-12-08T10:12:19.816Z,4360
2017-12-08T10:13:21.699Z,5224
2017-12-08T10:14:23.580Z,5808
2017-12-08T10:15:25.414Z,5952
2017-12-08T10:16:27.236Z,5800
2017-12-08T10:17:29.130Z,5860
2017-12-08T10:18:31.023Z,5692
2017-12-08T10:19:32.917Z,5364
2017-12-08T10:20:47.084Z,5148
2017-12-08T10:21:48.962Z,5112
2017-12-08T10:22:50.846Z,5056
2017-12-08T10:23:52.729Z,4932
2017-12-08T10:24:54.561Z,4968
2017-12-08T10:25:56.393Z,5060
2017-12-08T10:26:58.284Z,5372
2017-12-08T10:28:00.225Z,5808
2017-12-08T10:29:02.058Z,6272
2017-12-08T10:30:16.204Z,6464
2017-12-08T10:31:18.084Z,6108
2017-12-08T10:32:19.977Z,6416
2017-12-08T10:33:21.860Z,6424
2017-12-08T10:34:23.693Z,5652
2017-12-08T10:35:25.524Z,5060
2017-12-08T10:36:27.416Z,4692
2017-12-08T10:37:29.311Z,4916
2017-12-08T10:38:31.194Z,5172
2017-12-08T10:39:45.346Z,4452
2017-12-08T10:40:47.236Z,4164
2017-12-08T10:41:49.128Z,3804
2017-12-08T10:42:51.022Z,3424
2017-12-08T10:43:52.840Z,3132
2017-12-08T10:44:54.668Z,3132
2017-12-08T10:45:56.560Z,3400
2017-12-08T10:46:58.452Z,4432
2017-12-08T10:48:00.294Z,5136
2017-12-08T10:49:14.462Z,5336
2017-12-08T10:50:16.340Z,5660
2017-12-08T10:51:18.231Z,5132
2017-12-08T10:52:20.126Z,4656
2017-12-08T10:53:21.946Z,4632
2017-12-08T10:54:23.766Z,4556
2017-12-08T10:55:25.658Z,4468
2017-12-08T10:56:27.541Z,4312
2017-12-08T10:57:29.424Z,4420
2017-12-08T10:58:43.577Z,4904
2017-12-08T10:59:45.457Z,5092
2017-12-08T11:00:47.348Z,5096
2017-12-08T11:01:49.234Z,5372
2017-12-08T11:02:51.055Z,5800
2017-12-08T11:03:52.874Z,6040
2017-12-08T11:04:54.767Z,5944
2017-12-08T11:05:56.659Z,5940
2017-12-08T11:06:58.552Z,5536
2017-12-08T11:08:12.767Z,5336
2017-12-08T11:09:14.644Z,4976
2017-12-08T11:10:16.537Z,4552
2017-12-08T11:11:18.423Z,4492
2017-12-08T11:12:20.246Z,4428
2017-12-08T11:13:22.073Z,4364
2017-12-08T11:14:23.964Z,4264
2017-12-08T11:15:25.849Z,4292
2017-12-08T11:16:27.732Z,4312
2017-12-08T11:17:41.899Z,4264
2017-12-08T11:18:43.781Z,4352
2017-12-08T11:19:45.672Z,4320
2017-12-08T11:20:47.566Z,4444
2017-12-08T11:21:49.386Z,4796
2017-12-08T11:22:51.212Z,5152
2017-12-08T11:23:53.085Z,5056
2017-12-08T11:24:54.977Z,5040
2017-12-08T11:25:56.872Z,4992
2017-12-08T11:27:11.097Z,5504
2017-12-08T11:28:13.012Z,5376
2017-12-08T11:29:14.906Z,4544
2017-12-08T11:30:16.795Z,4252
2017-12-08T11:31:18.618Z,4096
2017-12-08T11:32:20.439Z,3976
2017-12-08T11:33:22.339Z,3912
2017-12-08T11:34:24.239Z,4004
2017-12-08T11:35:26.165Z,4400
2017-12-08T11:36:40.391Z,4548
2017-12-08T11:37:42.298Z,4424
2017-12-08T11:38:44.220Z,4020
2017-12-08T11:39:46.130Z,3836
2017-12-08T11:40:47.999Z,3828
2017-12-08T11:41:50.156Z,3964
2017-12-08T11:42:52.033Z,4272
2017-12-08T11:43:53.946Z,4708
2017-12-08T11:44:55.812Z,4972
2017-12-08T11:46:10.034Z,4808
2017-12-08T11:47:11.942Z,4728
2017-12-08T11:48:13.872Z,4952
2017-12-08T11:49:15.742Z,4696
2017-12-08T11:50:17.572Z,4052
2017-12-08T11:51:19.391Z,3852
2017-12-08T11:52:21.314Z,4080
2017-12-08T11:53:23.210Z,4412
2017-12-08T11:54:25.100Z,4808
2017-12-08T11:55:39.272Z,5888
2017-12-08T11:56:41.145Z,7144
2017-12-08T11:57:43.037Z,7980
2017-12-08T11:58:44.929Z,7604
2017-12-08T11:59:46.752Z,6512
2017-12-08T12:00:48.570Z,5532
2017-12-08T12:01:50.719Z,5224
2017-12-08T12:02:52.573Z,4500
2017-12-08T12:03:54.454Z,4152
2017-12-08T12:05:08.711Z,3784
2017-12-08T12:06:10.592Z,3852
2017-12-08T12:07:12.484Z,3868
2017-12-08T12:08:14.377Z,3512
2017-12-08T12:09:16.200Z,3344
2017-12-08T12:10:18.022Z,3468
2017-12-08T12:11:19.914Z,3688
2017-12-08T12:12:21.804Z,3732
2017-12-08T12:13:23.704Z,3832
2017-12-08T12:14:37.867Z,3956
2017-12-08T12:15:39.741Z,4312
2017-12-08T12:16:41.625Z,4696
2017-12-08T12:17:43.507Z,5108
2017-12-08T12:18:45.339Z,5204
2017-12-08T12:19:47.168Z,5648
2017-12-08T12:20:49.061Z,6128
2017-12-08T12:21:50.943Z,6064
2017-12-08T12:22:52.905Z,5596
2017-12-08T12:24:07.050Z,4864
2017-12-08T12:25:08.941Z,4876
2017-12-08T12:26:10.836Z,5376
2017-12-08T12:27:12.752Z,5636
2017-12-08T12:28:14.589Z,5564
2017-12-08T12:29:16.404Z,4984
2017-12-08T12:30:18.840Z,3992
2017-12-08T12:31:20.689Z,3072
2017-12-08T12:32:22.569Z,2796
2017-12-08T12:33:36.763Z,2720
2017-12-08T12:34:38.636Z,2424
2017-12-08T12:35:40.527Z,2368
2017-12-08T12:36:42.410Z,2344
2017-12-08T12:37:44.243Z,2408
2017-12-08T12:38:46.062Z,2180
2017-12-08T12:39:47.955Z,2112
2017-12-08T12:40:49.845Z,2468
2017-12-08T12:41:51.790Z,2724
2017-12-08T12:43:06.077Z,2572
2017-12-08T12:44:07.969Z,2396
2017-12-08T12:45:09.850Z,2308
2017-12-08T12:46:11.731Z,2208
2017-12-08T12:47:13.553Z,2452
2017-12-08T12:48:15.658Z,3348
2017-12-08T12:49:17.603Z,4144
2017-12-08T12:50:19.494Z,4208
2017-12-08T12:51:21.386Z,4400
2017-12-08T12:52:35.588Z,3700
2017-12-08T12:53:37.524Z,3000
2017-12-08T12:54:39.417Z,2608
2017-12-08T12:55:41.307Z,2524
2017-12-08T12:56:43.130Z,2888
2017-12-08T12:57:44.958Z,3556
2017-12-08T12:58:46.850Z,3556
2017-12-08T12:59:48.740Z,3372
2017-12-08T13:00:50.966Z,3296
2017-12-08T13:02:05.250Z,3360
2017-12-08T13:03:07.139Z,3724
2017-12-08T13:04:09.078Z,3328
2017-12-08T13:05:10.958Z,3100
2017-12-08T13:06:12.780Z,3008
2017-12-08T13:07:14.599Z,2804
2017-12-08T13:08:16.491Z,2688
2017-12-08T13:09:18.385Z,2540
2017-12-08T13:10:20.331Z,2436
2017-12-08T13:11:34.432Z,2368
2017-12-08T13:12:36.320Z,2336
2017-12-08T13:13:38.214Z,2312
2017-12-08T13:14:40.096Z,2284
2017-12-08T13:15:41.919Z,2248
2017-12-08T13:16:43.740Z,2208
2017-12-08T13:17:45.630Z,2172
2017-12-08T13:18:47.520Z,2148
2017-12-08T13:19:49.410Z,2128
2017-12-08T13:21:03.630Z,2104
2017-12-08T13:22:05.523Z,2096
2017-12-08T13:23:07.409Z,2080
2017-12-08T13:24:09.288Z,2056
2017-12-08T13:25:11.110Z,2020
2017-12-08T13:26:12.928Z,1988
2017-12-08T13:27:14.806Z,1940
2017-12-08T13:28:16.694Z,1908
2017-12-08T13:29:18.584Z,1860
2017-12-08T13:30:32.746Z,1784
2017-12-08T13:31:34.622Z,1736
2017-12-08T13:32:36.510Z,1700
2017-12-08T13:33:38.400Z,1664
2017-12-08T13:34:40.233Z,1616
2017-12-08T13:35:42.061Z,1584
2017-12-08T13:36:43.950Z,1528
2017-12-08T13:37:45.826Z,1448
2017-12-08T13:38:47.722Z,1416
2017-12-08T13:40:01.875Z,1416
2017-12-08T13:41:03.752Z,1416
2017-12-08T13:42:05.638Z,1408
2017-12-08T13:43:07.609Z,1416
2017-12-08T13:44:09.505Z,1428
2017-12-08T13:45:11.379Z,1444
2017-12-08T13:46:13.253Z,1496
2017-12-08T13:47:15.143Z,1600
2017-12-08T13:48:17.017Z,1684
2017-12-08T13:49:31.180Z,1672
2017-12-08T13:50:33.182Z,1548
2017-12-08T13:51:35.565Z,1472
2017-12-08T13:52:37.433Z,1404
2017-12-08T13:53:39.261Z,1388
2017-12-08T13:54:41.091Z,1376
2017-12-08T13:55:42.977Z,1296
2017-12-08T13:56:44.853Z,1184
2017-12-08T13:57:46.731Z,1108
2017-12-08T13:59:00.896Z,1036
2017-12-08T14:00:02.772Z,1060
2017-12-08T14:01:04.658Z,1148
2017-12-08T14:02:06.539Z,1256
2017-12-08T14:03:08.362Z,1360
2017-12-08T14:04:10.187Z,1380
2017-12-08T14:05:12.066Z,1276
2017-12-08T14:06:13.961Z,1148
2017-12-08T14:07:15.838Z,1080
2017-12-08T14:08:30.000Z,976
2017-12-08T14:09:31.879Z,876
2017-12-08T14:10:33.760Z,784
2017-12-08T14:11:35.639Z,704
2017-12-08T14:12:37.456Z,672
2017-12-08T14:13:39.334Z,700
2017-12-08T14:14:41.151Z,752
2017-12-08T14:15:43.031Z,804
2017-12-08T14:16:44.908Z,848
2017-12-08T14:17:59.068Z,920
2017-12-08T14:19:00.941Z,972
2017-12-08T14:20:02.828Z,968
2017-12-08T14:21:04.715Z,932
2017-12-08T14:22:06.557Z,908
2017-12-08T14:23:08.375Z,872
2017-12-08T14:24:10.361Z,892
2017-12-08T14:25:12.263Z,928
2017-12-08T14:26:14.153Z,928
2017-12-08T14:27:28.315Z,884
2017-12-08T14:28:30.226Z,852
2017-12-08T14:29:32.106Z,832
2017-12-08T14:30:33.985Z,816
2017-12-08T14:31:35.803Z,804
2017-12-08T14:32:37.620Z,792
2017-12-08T14:33:39.498Z,764
2017-12-08T14:34:41.389Z,756
2017-12-08T14:35:43.280Z,744
2017-12-08T14:36:57.434Z,720
2017-12-08T14:37:59.320Z,672
2017-12-08T14:39:01.196Z,616
2017-12-08T14:40:03.074Z,584
2017-12-08T14:41:04.904Z,544
2017-12-08T14:42:06.722Z,516
2017-12-08T14:43:08.941Z,488
2017-12-08T14:44:10.995Z,456
2017-12-08T14:45:12.875Z,428